sensor_id;sensor_type;location;lat;lon;timestamp;P1;durP1;ratioP1;P2;durP2;ratioP2
19812;SDS011;10066;48.108;11.448;2022-10-23T00:00:23;2.87;;;1.90;;
19812;SDS011;10066;48.108;11.448;2022-10-23T00:02:54;3.90;;;1.97;;
19812;SDS011;10066;48.108;11.448;2022-10-23T00:05:21;2.03;;;1.80;;
19812;SDS011;10066;48.108;11.448;2022-10-23T00:07:49;2.57;;;1.70;;
19812;SDS011;10066;48.108;11.448;2022-10-23T00:10:16;7.03;;;1.90;;
19812;SDS011;10066;48.108;11.448;2022-10-23T00:12:45;2.93;;;1.50;;
19812;SDS011;10066;48.108;11.448;2022-10-23T00:15:13;4.00;;;1.90;;
19812;SDS011;10066;48.108;11.448;2022-10-23T00:17:42;3.07;;;1.80;;
19812;SDS011;10066;48.108;11.448;2022-10-23T00:20:10;3.30;;;1.80;;
19812;SDS011;10066;48.108;11.448;2022-10-23T00:22:38;2.40;;;1.67;;
19812;SDS011;10066;48.108;11.448;2022-10-23T00:25:06;3.47;;;1.60;;
19812;SDS011;10066;48.108;11.448;2022-10-23T00:27:34;1.90;;;1.53;;
19812;SDS011;10066;48.108;11.448;2022-10-23T00:30:02;4.33;;;1.93;;
19812;SDS011;10066;48.108;11.448;2022-10-23T00:32:30;2.37;;;1.57;;
19812;SDS011;10066;48.108;11.448;2022-10-23T00:34:57;3.87;;;1.70;;
19812;SDS011;10066;48.108;11.448;2022-10-23T00:37:26;4.80;;;1.50;;
19812;SDS011;10066;48.108;11.448;2022-10-23T00:39:53;3.47;;;1.57;;
19812;SDS011;10066;48.108;11.448;2022-10-23T00:42:20;2.20;;;1.60;;
19812;SDS011;10066;48.108;11.448;2022-10-23T00:47:38;4.50;;;1.73;;
19812;SDS011;10066;48.108;11.448;2022-10-23T00:50:05;4.83;;;1.70;;
19812;SDS011;10066;48.108;11.448;2022-10-23T00:52:34;1.77;;;1.30;;
19812;SDS011;10066;48.108;11.448;2022-10-23T00:55:05;2.87;;;1.50;;
19812;SDS011;10066;48.108;11.448;2022-10-23T00:57:33;4.20;;;1.50;;
19812;SDS011;10066;48.108;11.448;2022-10-23T01:00:00;4.27;;;1.70;;
19812;SDS011;10066;48.108;11.448;2022-10-23T01:02:27;3.23;;;1.43;;
19812;SDS011;10066;48.108;11.448;2022-10-23T01:04:54;3.73;;;1.30;;
19812;SDS011;10066;48.108;11.448;2022-10-23T01:07:21;3.17;;;1.30;;
19812;SDS011;10066;48.108;11.448;2022-10-23T01:09:57;2.30;;;1.73;;
19812;SDS011;10066;48.108;11.448;2022-10-23T01:12:32;3.03;;;1.17;;
19812;SDS011;10066;48.108;11.448;2022-10-23T01:15:06;2.03;;;1.43;;
19812;SDS011;10066;48.108;11.448;2022-10-23T01:17:40;4.40;;;1.53;;
19812;SDS011;10066;48.108;11.448;2022-10-23T01:20:13;4.30;;;1.43;;
19812;SDS011;10066;48.108;11.448;2022-10-23T01:23:07;2.60;;;1.10;;
19812;SDS011;10066;48.108;11.448;2022-10-23T01:25:47;3.10;;;1.50;;
19812;SDS011;10066;48.108;11.448;2022-10-23T01:28:27;4.47;;;1.37;;
19812;SDS011;10066;48.108;11.448;2022-10-23T01:30:58;2.60;;;1.70;;
19812;SDS011;10066;48.108;11.448;2022-10-23T01:33:28;1.83;;;1.53;;
19812;SDS011;10066;48.108;11.448;2022-10-23T01:35:59;2.60;;;1.80;;
19812;SDS011;10066;48.108;11.448;2022-10-23T01:38:30;3.90;;;2.00;;
19812;SDS011;10066;48.108;11.448;2022-10-23T01:41:05;3.67;;;1.47;;
19812;SDS011;10066;48.108;11.448;2022-10-23T01:43:39;6.87;;;2.13;;
19812;SDS011;10066;48.108;11.448;2022-10-23T01:46:11;5.30;;;1.70;;
19812;SDS011;10066;48.108;11.448;2022-10-23T01:48:42;5.30;;;1.90;;
19812;SDS011;10066;48.108;11.448;2022-10-23T01:51:13;2.50;;;1.70;;
19812;SDS011;10066;48.108;11.448;2022-10-23T01:53:41;2.37;;;1.50;;
19812;SDS011;10066;48.108;11.448;2022-10-23T01:56:11;3.53;;;1.87;;
19812;SDS011;10066;48.108;11.448;2022-10-23T01:58:43;2.57;;;1.60;;
19812;SDS011;10066;48.108;11.448;2022-10-23T02:01:12;2.97;;;1.63;;
19812;SDS011;10066;48.108;11.448;2022-10-23T02:03:40;2.53;;;1.60;;
19812;SDS011;10066;48.108;11.448;2022-10-23T02:06:09;4.13;;;1.70;;
19812;SDS011;10066;48.108;11.448;2022-10-23T02:08:36;4.10;;;1.40;;
19812;SDS011;10066;48.108;11.448;2022-10-23T02:11:05;2.50;;;1.60;;
19812;SDS011;10066;48.108;11.448;2022-10-23T02:13:35;1.73;;;1.33;;
19812;SDS011;10066;48.108;11.448;2022-10-23T02:16:11;4.90;;;2.00;;
19812;SDS011;10066;48.108;11.448;2022-10-23T02:18:49;3.07;;;1.50;;
19812;SDS011;10066;48.108;11.448;2022-10-23T02:21:22;3.00;;;1.67;;
19812;SDS011;10066;48.108;11.448;2022-10-23T02:23:58;2.90;;;1.60;;
19812;SDS011;10066;48.108;11.448;2022-10-23T02:26:29;2.43;;;1.50;;
19812;SDS011;10066;48.108;11.448;2022-10-23T02:29:00;3.13;;;1.40;;
19812;SDS011;10066;48.108;11.448;2022-10-23T02:31:32;4.13;;;1.50;;
19812;SDS011;10066;48.108;11.448;2022-10-23T02:33:59;1.63;;;1.50;;
19812;SDS011;10066;48.108;11.448;2022-10-23T02:36:27;2.20;;;1.40;;
19812;SDS011;10066;48.108;11.448;2022-10-23T02:38:55;2.43;;;1.47;;
19812;SDS011;10066;48.108;11.448;2022-10-23T02:41:27;2.67;;;1.57;;
19812;SDS011;10066;48.108;11.448;2022-10-23T02:44:07;2.10;;;1.70;;
19812;SDS011;10066;48.108;11.448;2022-10-23T02:46:47;3.27;;;1.33;;
19812;SDS011;10066;48.108;11.448;2022-10-23T02:49:20;1.83;;;1.50;;
19812;SDS011;10066;48.108;11.448;2022-10-23T02:51:55;4.17;;;1.40;;
19812;SDS011;10066;48.108;11.448;2022-10-23T02:54:36;2.27;;;1.33;;
19812;SDS011;10066;48.108;11.448;2022-10-23T02:57:14;3.20;;;1.30;;
19812;SDS011;10066;48.108;11.448;2022-10-23T02:59:45;3.63;;;1.40;;
19812;SDS011;10066;48.108;11.448;2022-10-23T03:02:18;1.23;;;1.13;;
19812;SDS011;10066;48.108;11.448;2022-10-23T03:04:48;1.93;;;1.40;;
19812;SDS011;10066;48.108;11.448;2022-10-23T03:07:17;1.77;;;1.33;;
19812;SDS011;10066;48.108;11.448;2022-10-23T03:09:45;1.67;;;1.30;;
19812;SDS011;10066;48.108;11.448;2022-10-23T03:12:12;4.23;;;1.40;;
19812;SDS011;10066;48.108;11.448;2022-10-23T03:14:39;1.77;;;1.10;;
19812;SDS011;10066;48.108;11.448;2022-10-23T03:17:06;1.40;;;1.20;;
19812;SDS011;10066;48.108;11.448;2022-10-23T03:19:35;2.50;;;1.43;;
19812;SDS011;10066;48.108;11.448;2022-10-23T03:22:03;3.80;;;1.60;;
19812;SDS011;10066;48.108;11.448;2022-10-23T03:24:29;2.13;;;1.27;;
19812;SDS011;10066;48.108;11.448;2022-10-23T03:26:56;4.07;;;1.37;;
19812;SDS011;10066;48.108;11.448;2022-10-23T03:29:23;3.33;;;1.50;;
19812;SDS011;10066;48.108;11.448;2022-10-23T03:31:50;3.80;;;1.40;;
19812;SDS011;10066;48.108;11.448;2022-10-23T03:34:19;2.20;;;1.43;;
19812;SDS011;10066;48.108;11.448;2022-10-23T03:36:48;1.63;;;1.30;;
19812;SDS011;10066;48.108;11.448;2022-10-23T03:39:15;2.30;;;1.00;;
19812;SDS011;10066;48.108;11.448;2022-10-23T03:41:42;1.40;;;1.30;;
19812;SDS011;10066;48.108;11.448;2022-10-23T03:44:09;2.07;;;1.50;;
19812;SDS011;10066;48.108;11.448;2022-10-23T03:46:36;2.90;;;1.50;;
19812;SDS011;10066;48.108;11.448;2022-10-23T03:49:04;2.63;;;1.40;;
19812;SDS011;10066;48.108;11.448;2022-10-23T03:51:31;1.50;;;1.00;;
19812;SDS011;10066;48.108;11.448;2022-10-23T03:53:59;5.03;;;1.40;;
19812;SDS011;10066;48.108;11.448;2022-10-23T03:56:27;1.67;;;1.20;;
19812;SDS011;10066;48.108;11.448;2022-10-23T03:58:54;2.03;;;1.20;;
19812;SDS011;10066;48.108;11.448;2022-10-23T04:01:21;2.30;;;1.10;;
19812;SDS011;10066;48.108;11.448;2022-10-23T04:03:48;2.17;;;1.20;;
19812;SDS011;10066;48.108;11.448;2022-10-23T04:06:15;2.60;;;1.20;;
19812;SDS011;10066;48.108;11.448;2022-10-23T04:08:42;1.90;;;1.20;;
19812;SDS011;10066;48.108;11.448;2022-10-23T04:11:11;3.30;;;1.30;;
19812;SDS011;10066;48.108;11.448;2022-10-23T04:13:38;1.80;;;1.37;;
19812;SDS011;10066;48.108;11.448;2022-10-23T04:16:05;7.03;;;1.30;;
19812;SDS011;10066;48.108;11.448;2022-10-23T04:18:32;1.67;;;1.10;;
19812;SDS011;10066;48.108;11.448;2022-10-23T04:20:59;2.20;;;1.20;;
19812;SDS011;10066;48.108;11.448;2022-10-23T04:23:26;3.13;;;1.27;;
19812;SDS011;10066;48.108;11.448;2022-10-23T04:25:54;1.63;;;1.20;;
19812;SDS011;10066;48.108;11.448;2022-10-23T04:28:23;1.93;;;1.40;;
19812;SDS011;10066;48.108;11.448;2022-10-23T04:30:51;2.70;;;1.17;;
19812;SDS011;10066;48.108;11.448;2022-10-23T04:33:19;1.10;;;1.00;;
19812;SDS011;10066;48.108;11.448;2022-10-23T04:35:46;2.20;;;1.10;;
19812;SDS011;10066;48.108;11.448;2022-10-23T04:38:12;2.63;;;1.30;;
19812;SDS011;10066;48.108;11.448;2022-10-23T04:40:39;2.70;;;1.23;;
19812;SDS011;10066;48.108;11.448;2022-10-23T04:43:06;1.60;;;1.00;;
19812;SDS011;10066;48.108;11.448;2022-10-23T04:45:35;1.53;;;1.10;;
19812;SDS011;10066;48.108;11.448;2022-10-23T04:48:02;1.10;;;1.00;;
19812;SDS011;10066;48.108;11.448;2022-10-23T04:50:29;1.00;;;0.90;;
19812;SDS011;10066;48.108;11.448;2022-10-23T04:52:56;1.70;;;1.20;;
19812;SDS011;10066;48.108;11.448;2022-10-23T04:55:24;2.47;;;1.20;;
19812;SDS011;10066;48.108;11.448;2022-10-23T04:57:51;2.40;;;1.10;;
19812;SDS011;10066;48.108;11.448;2022-10-23T05:00:18;2.90;;;1.07;;
19812;SDS011;10066;48.108;11.448;2022-10-23T05:02:47;1.70;;;1.30;;
19812;SDS011;10066;48.108;11.448;2022-10-23T05:05:14;2.17;;;1.27;;
19812;SDS011;10066;48.108;11.448;2022-10-23T05:07:41;3.93;;;1.00;;
19812;SDS011;10066;48.108;11.448;2022-10-23T05:10:08;1.10;;;1.00;;
19812;SDS011;10066;48.108;11.448;2022-10-23T05:12:35;2.43;;;1.30;;
19812;SDS011;10066;48.108;11.448;2022-10-23T05:15:02;2.50;;;1.37;;
19812;SDS011;10066;48.108;11.448;2022-10-23T05:17:31;1.33;;;1.03;;
19812;SDS011;10066;48.108;11.448;2022-10-23T05:20:02;1.47;;;1.10;;
19812;SDS011;10066;48.108;11.448;2022-10-23T05:22:35;1.67;;;1.20;;
19812;SDS011;10066;48.108;11.448;2022-10-23T05:25:05;2.07;;;1.10;;
19812;SDS011;10066;48.108;11.448;2022-10-23T05:27:32;1.70;;;1.30;;
19812;SDS011;10066;48.108;11.448;2022-10-23T05:29:59;1.70;;;1.10;;
19812;SDS011;10066;48.108;11.448;2022-10-23T05:32:28;1.70;;;1.00;;
19812;SDS011;10066;48.108;11.448;2022-10-23T05:34:56;3.93;;;1.00;;
19812;SDS011;10066;48.108;11.448;2022-10-23T05:37:26;1.03;;;0.90;;
19812;SDS011;10066;48.108;11.448;2022-10-23T05:39:53;1.47;;;1.10;;
19812;SDS011;10066;48.108;11.448;2022-10-23T05:42:20;3.23;;;1.27;;
19812;SDS011;10066;48.108;11.448;2022-10-23T05:44:47;5.13;;;1.10;;
19812;SDS011;10066;48.108;11.448;2022-10-23T05:47:14;2.37;;;1.07;;
19812;SDS011;10066;48.108;11.448;2022-10-23T05:49:41;1.60;;;1.10;;
19812;SDS011;10066;48.108;11.448;2022-10-23T05:52:09;2.17;;;1.17;;
19812;SDS011;10066;48.108;11.448;2022-10-23T05:54:38;2.77;;;1.40;;
19812;SDS011;10066;48.108;11.448;2022-10-23T05:57:05;3.03;;;1.27;;
19812;SDS011;10066;48.108;11.448;2022-10-23T05:59:32;3.53;;;1.40;;
19812;SDS011;10066;48.108;11.448;2022-10-23T06:01:59;2.57;;;1.17;;
19812;SDS011;10066;48.108;11.448;2022-10-23T06:04:26;2.73;;;1.40;;
19812;SDS011;10066;48.108;11.448;2022-10-23T06:06:53;3.80;;;1.30;;
19812;SDS011;10066;48.108;11.448;2022-10-23T06:09:20;2.70;;;1.37;;
19812;SDS011;10066;48.108;11.448;2022-10-23T06:11:49;5.67;;;1.40;;
19812;SDS011;10066;48.108;11.448;2022-10-23T06:14:16;3.93;;;1.30;;
19812;SDS011;10066;48.108;11.448;2022-10-23T06:16:43;1.63;;;1.33;;
19812;SDS011;10066;48.108;11.448;2022-10-23T06:19:10;2.13;;;1.20;;
19812;SDS011;10066;48.108;11.448;2022-10-23T06:21:38;1.40;;;1.10;;
19812;SDS011;10066;48.108;11.448;2022-10-23T06:24:06;1.93;;;1.13;;
19812;SDS011;10066;48.108;11.448;2022-10-23T06:26:33;1.40;;;1.10;;
19812;SDS011;10066;48.108;11.448;2022-10-23T06:29:02;2.73;;;1.30;;
19812;SDS011;10066;48.108;11.448;2022-10-23T06:31:29;1.67;;;1.37;;
19812;SDS011;10066;48.108;11.448;2022-10-23T06:33:57;2.80;;;1.17;;
19812;SDS011;10066;48.108;11.448;2022-10-23T06:36:25;1.33;;;1.17;;
19812;SDS011;10066;48.108;11.448;2022-10-23T06:38:52;2.27;;;1.60;;
19812;SDS011;10066;48.108;11.448;2022-10-23T06:41:20;1.73;;;1.43;;
19812;SDS011;10066;48.108;11.448;2022-10-23T06:43:48;2.53;;;1.43;;
19812;SDS011;10066;48.108;11.448;2022-10-23T06:46:17;2.27;;;1.57;;
19812;SDS011;10066;48.108;11.448;2022-10-23T06:48:45;1.60;;;1.50;;
19812;SDS011;10066;48.108;11.448;2022-10-23T06:51:13;3.37;;;1.80;;
19812;SDS011;10066;48.108;11.448;2022-10-23T06:53:42;2.43;;;1.63;;
19812;SDS011;10066;48.108;11.448;2022-10-23T06:56:09;2.07;;;1.57;;
19812;SDS011;10066;48.108;11.448;2022-10-23T06:58:37;2.30;;;1.93;;
19812;SDS011;10066;48.108;11.448;2022-10-23T07:01:06;2.57;;;2.00;;
19812;SDS011;10066;48.108;11.448;2022-10-23T07:03:36;2.03;;;1.83;;
19812;SDS011;10066;48.108;11.448;2022-10-23T07:06:04;3.10;;;1.90;;
19812;SDS011;10066;48.108;11.448;2022-10-23T07:08:32;2.20;;;2.00;;
19812;SDS011;10066;48.108;11.448;2022-10-23T07:11:01;5.07;;;2.03;;
19812;SDS011;10066;48.108;11.448;2022-10-23T07:13:29;2.57;;;1.90;;
19812;SDS011;10066;48.108;11.448;2022-10-23T07:15:56;4.93;;;2.03;;
19812;SDS011;10066;48.108;11.448;2022-10-23T07:18:24;2.23;;;1.43;;
19812;SDS011;10066;48.108;11.448;2022-10-23T07:20:57;2.63;;;1.60;;
19812;SDS011;10066;48.108;11.448;2022-10-23T07:23:24;3.60;;;1.90;;
19812;SDS011;10066;48.108;11.448;2022-10-23T07:25:51;2.57;;;2.07;;
19812;SDS011;10066;48.108;11.448;2022-10-23T07:28:18;2.10;;;1.80;;
19812;SDS011;10066;48.108;11.448;2022-10-23T07:30:50;1.77;;;1.63;;
19812;SDS011;10066;48.108;11.448;2022-10-23T07:33:21;2.83;;;2.07;;
19812;SDS011;10066;48.108;11.448;2022-10-23T07:35:49;2.23;;;1.90;;
19812;SDS011;10066;48.108;11.448;2022-10-23T07:38:17;3.17;;;1.57;;
19812;SDS011;10066;48.108;11.448;2022-10-23T07:40:44;1.80;;;1.50;;
19812;SDS011;10066;48.108;11.448;2022-10-23T07:43:12;1.67;;;1.40;;
19812;SDS011;10066;48.108;11.448;2022-10-23T07:45:39;2.00;;;1.40;;
19812;SDS011;10066;48.108;11.448;2022-10-23T07:48:06;3.50;;;1.30;;
19812;SDS011;10066;48.108;11.448;2022-10-23T07:50:36;6.13;;;1.40;;
19812;SDS011;10066;48.108;11.448;2022-10-23T07:53:03;4.23;;;1.40;;
19812;SDS011;10066;48.108;11.448;2022-10-23T07:55:31;2.07;;;1.10;;
19812;SDS011;10066;48.108;11.448;2022-10-23T07:57:58;3.30;;;1.30;;
19812;SDS011;10066;48.108;11.448;2022-10-23T08:00:25;2.00;;;1.20;;
19812;SDS011;10066;48.108;11.448;2022-10-23T08:02:52;2.00;;;1.30;;
19812;SDS011;10066;48.108;11.448;2022-10-23T08:05:19;1.37;;;1.20;;
19812;SDS011;10066;48.108;11.448;2022-10-23T08:07:47;1.97;;;1.00;;
19812;SDS011;10066;48.108;11.448;2022-10-23T08:10:14;2.83;;;1.40;;
19812;SDS011;10066;48.108;11.448;2022-10-23T08:12:43;1.50;;;1.20;;
19812;SDS011;10066;48.108;11.448;2022-10-23T08:15:10;1.87;;;1.10;;
19812;SDS011;10066;48.108;11.448;2022-10-23T08:17:37;1.33;;;0.93;;
19812;SDS011;10066;48.108;11.448;2022-10-23T08:20:05;2.20;;;0.80;;
19812;SDS011;10066;48.108;11.448;2022-10-23T08:22:32;4.50;;;1.10;;
19812;SDS011;10066;48.108;11.448;2022-10-23T08:25:01;1.60;;;1.00;;
19812;SDS011;10066;48.108;11.448;2022-10-23T08:27:28;0.93;;;0.83;;
19812;SDS011;10066;48.108;11.448;2022-10-23T08:29:57;1.70;;;1.17;;
19812;SDS011;10066;48.108;11.448;2022-10-23T08:32:23;3.23;;;1.20;;
19812;SDS011;10066;48.108;11.448;2022-10-23T08:34:54;1.03;;;0.93;;
19812;SDS011;10066;48.108;11.448;2022-10-23T08:37:21;2.60;;;0.90;;
19812;SDS011;10066;48.108;11.448;2022-10-23T08:39:48;1.43;;;0.90;;
19812;SDS011;10066;48.108;11.448;2022-10-23T08:42:19;4.50;;;1.10;;
19812;SDS011;10066;48.108;11.448;2022-10-23T08:44:54;1.27;;;0.83;;
19812;SDS011;10066;48.108;11.448;2022-10-23T08:47:30;0.90;;;0.80;;
19812;SDS011;10066;48.108;11.448;2022-10-23T08:50:05;0.87;;;0.70;;
19812;SDS011;10066;48.108;11.448;2022-10-23T08:52:38;2.27;;;0.70;;
19812;SDS011;10066;48.108;11.448;2022-10-23T08:55:14;0.70;;;0.70;;
19812;SDS011;10066;48.108;11.448;2022-10-23T08:57:47;1.23;;;0.83;;
19812;SDS011;10066;48.108;11.448;2022-10-23T09:00:23;1.13;;;0.80;;
19812;SDS011;10066;48.108;11.448;2022-10-23T09:02:51;3.73;;;0.80;;
19812;SDS011;10066;48.108;11.448;2022-10-23T09:05:20;0.83;;;0.60;;
19812;SDS011;10066;48.108;11.448;2022-10-23T09:08:00;3.30;;;0.90;;
19812;SDS011;10066;48.108;11.448;2022-10-23T09:10:41;1.20;;;0.73;;
19812;SDS011;10066;48.108;11.448;2022-10-23T09:16:24;0.93;;;0.70;;
19812;SDS011;10066;48.108;11.448;2022-10-23T09:19:04;2.13;;;0.67;;
19812;SDS011;10066;48.108;11.448;2022-10-23T09:21:36;0.70;;;0.70;;
19812;SDS011;10066;48.108;11.448;2022-10-23T09:24:04;2.63;;;0.83;;
19812;SDS011;10066;48.108;11.448;2022-10-23T09:26:31;2.30;;;0.63;;
19812;SDS011;10066;48.108;11.448;2022-10-23T09:29:01;2.27;;;0.73;;
19812;SDS011;10066;48.108;11.448;2022-10-23T09:31:47;3.00;;;1.00;;
19812;SDS011;10066;48.108;11.448;2022-10-23T09:34:17;1.37;;;0.90;;
19812;SDS011;10066;48.108;11.448;2022-10-23T09:36:49;3.90;;;0.70;;
19812;SDS011;10066;48.108;11.448;2022-10-23T09:39:21;5.43;;;1.20;;
19812;SDS011;10066;48.108;11.448;2022-10-23T09:41:51;1.40;;;0.97;;
19812;SDS011;10066;48.108;11.448;2022-10-23T09:44:19;1.00;;;0.90;;
19812;SDS011;10066;48.108;11.448;2022-10-23T09:46:50;2.97;;;0.93;;
19812;SDS011;10066;48.108;11.448;2022-10-23T09:49:19;1.57;;;0.90;;
19812;SDS011;10066;48.108;11.448;2022-10-23T09:51:49;1.17;;;0.73;;
19812;SDS011;10066;48.108;11.448;2022-10-23T09:54:21;2.33;;;0.77;;
19812;SDS011;10066;48.108;11.448;2022-10-23T09:56:49;1.57;;;0.60;;
19812;SDS011;10066;48.108;11.448;2022-10-23T09:59:19;3.57;;;0.70;;
19812;SDS011;10066;48.108;11.448;2022-10-23T10:01:51;2.33;;;0.87;;
19812;SDS011;10066;48.108;11.448;2022-10-23T10:04:29;1.00;;;0.60;;
19812;SDS011;10066;48.108;11.448;2022-10-23T10:06:57;2.70;;;0.60;;
19812;SDS011;10066;48.108;11.448;2022-10-23T10:09:26;3.60;;;0.50;;
19812;SDS011;10066;48.108;11.448;2022-10-23T10:11:54;1.80;;;0.60;;
19812;SDS011;10066;48.108;11.448;2022-10-23T10:14:36;0.47;;;0.47;;
19812;SDS011;10066;48.108;11.448;2022-10-23T10:17:18;1.00;;;0.70;;
19812;SDS011;10066;48.108;11.448;2022-10-23T10:19:59;2.87;;;0.60;;
19812;SDS011;10066;48.108;11.448;2022-10-23T10:22:38;1.23;;;0.70;;
19812;SDS011;10066;48.108;11.448;2022-10-23T10:25:09;2.53;;;0.47;;
19812;SDS011;10066;48.108;11.448;2022-10-23T10:27:44;0.80;;;0.60;;
19812;SDS011;10066;48.108;11.448;2022-10-23T10:30:22;1.37;;;0.77;;
19812;SDS011;10066;48.108;11.448;2022-10-23T10:32:53;2.43;;;0.60;;
19812;SDS011;10066;48.108;11.448;2022-10-23T10:35:25;0.50;;;0.50;;
19812;SDS011;10066;48.108;11.448;2022-10-23T10:38:07;1.00;;;0.60;;
19812;SDS011;10066;48.108;11.448;2022-10-23T10:40:46;1.60;;;0.50;;
19812;SDS011;10066;48.108;11.448;2022-10-23T10:43:23;1.77;;;0.60;;
19812;SDS011;10066;48.108;11.448;2022-10-23T10:46:02;1.77;;;0.70;;
19812;SDS011;10066;48.108;11.448;2022-10-23T10:48:40;1.00;;;0.60;;
19812;SDS011;10066;48.108;11.448;2022-10-23T10:51:14;3.57;;;0.73;;
19812;SDS011;10066;48.108;11.448;2022-10-23T10:54:06;1.33;;;0.50;;
19812;SDS011;10066;48.108;11.448;2022-10-23T10:56:42;0.70;;;0.40;;
19812;SDS011;10066;48.108;11.448;2022-10-23T10:59:13;1.43;;;0.60;;
19812;SDS011;10066;48.108;11.448;2022-10-23T11:01:45;2.83;;;0.70;;
19812;SDS011;10066;48.108;11.448;2022-10-23T11:04:24;1.07;;;0.67;;
19812;SDS011;10066;48.108;11.448;2022-10-23T11:06:57;1.97;;;0.70;;
19812;SDS011;10066;48.108;11.448;2022-10-23T11:09:28;1.00;;;0.50;;
19812;SDS011;10066;48.108;11.448;2022-10-23T11:11:55;0.60;;;0.60;;
19812;SDS011;10066;48.108;11.448;2022-10-23T11:14:23;1.03;;;0.60;;
19812;SDS011;10066;48.108;11.448;2022-10-23T11:16:52;1.10;;;0.60;;
19812;SDS011;10066;48.108;11.448;2022-10-23T11:19:28;0.70;;;0.60;;
19812;SDS011;10066;48.108;11.448;2022-10-23T11:22:01;5.00;;;0.60;;
19812;SDS011;10066;48.108;11.448;2022-10-23T11:24:40;1.33;;;0.80;;
19812;SDS011;10066;48.108;11.448;2022-10-23T11:27:36;0.70;;;0.60;;
19812;SDS011;10066;48.108;11.448;2022-10-23T11:30:22;2.80;;;1.20;;
19812;SDS011;10066;48.108;11.448;2022-10-23T11:33:02;2.30;;;0.67;;
19812;SDS011;10066;48.108;11.448;2022-10-23T11:35:54;1.50;;;0.77;;
19812;SDS011;10066;48.108;11.448;2022-10-23T11:38:32;0.93;;;0.60;;
19812;SDS011;10066;48.108;11.448;2022-10-23T11:41:02;1.17;;;0.70;;
19812;SDS011;10066;48.108;11.448;2022-10-23T11:43:33;4.83;;;0.70;;
19812;SDS011;10066;48.108;11.448;2022-10-23T11:46:27;2.80;;;0.90;;
19812;SDS011;10066;48.108;11.448;2022-10-23T11:48:56;1.10;;;0.67;;
19812;SDS011;10066;48.108;11.448;2022-10-23T11:51:28;1.67;;;0.70;;
19812;SDS011;10066;48.108;11.448;2022-10-23T11:54:17;2.20;;;0.50;;
19812;SDS011;10066;48.108;11.448;2022-10-23T11:56:53;0.60;;;0.53;;
19812;SDS011;10066;48.108;11.448;2022-10-23T11:59:24;3.50;;;0.90;;
19812;SDS011;10066;48.108;11.448;2022-10-23T12:01:54;0.80;;;0.70;;
19812;SDS011;10066;48.108;11.448;2022-10-23T12:04:24;1.57;;;0.80;;
19812;SDS011;10066;48.108;11.448;2022-10-23T12:06:54;1.13;;;0.60;;
19812;SDS011;10066;48.108;11.448;2022-10-23T12:09:28;1.60;;;0.60;;
19812;SDS011;10066;48.108;11.448;2022-10-23T12:12:01;2.93;;;0.70;;
19812;SDS011;10066;48.108;11.448;2022-10-23T12:14:42;1.43;;;0.70;;
19812;SDS011;10066;48.108;11.448;2022-10-23T12:17:28;1.90;;;1.03;;
19812;SDS011;10066;48.108;11.448;2022-10-23T12:20:12;1.80;;;0.80;;
19812;SDS011;10066;48.108;11.448;2022-10-23T12:23:01;1.40;;;0.77;;
19812;SDS011;10066;48.108;11.448;2022-10-23T12:25:50;1.30;;;0.60;;
19812;SDS011;10066;48.108;11.448;2022-10-23T12:28:38;1.03;;;0.70;;
19812;SDS011;10066;48.108;11.448;2022-10-23T12:31:18;2.43;;;0.70;;
19812;SDS011;10066;48.108;11.448;2022-10-23T12:33:55;1.20;;;0.80;;
19812;SDS011;10066;48.108;11.448;2022-10-23T12:36:38;1.13;;;0.70;;
19812;SDS011;10066;48.108;11.448;2022-10-23T12:39:25;2.53;;;0.67;;
19812;SDS011;10066;48.108;11.448;2022-10-23T12:41:53;1.87;;;0.77;;
19812;SDS011;10066;48.108;11.448;2022-10-23T12:44:21;3.07;;;0.77;;
19812;SDS011;10066;48.108;11.448;2022-10-23T12:46:50;1.47;;;0.60;;
19812;SDS011;10066;48.108;11.448;2022-10-23T12:49:21;1.53;;;0.80;;
19812;SDS011;10066;48.108;11.448;2022-10-23T12:51:56;1.13;;;0.90;;
19812;SDS011;10066;48.108;11.448;2022-10-23T12:54:26;1.00;;;0.77;;
19812;SDS011;10066;48.108;11.448;2022-10-23T12:56:56;1.10;;;0.60;;
19812;SDS011;10066;48.108;11.448;2022-10-23T12:59:23;0.87;;;0.70;;
19812;SDS011;10066;48.108;11.448;2022-10-23T13:01:53;1.03;;;0.83;;
19812;SDS011;10066;48.108;11.448;2022-10-23T13:04:22;6.60;;;2.30;;
19812;SDS011;10066;48.108;11.448;2022-10-23T13:06:53;2.33;;;1.20;;
19812;SDS011;10066;48.108;11.448;2022-10-23T13:09:23;1.33;;;0.80;;
19812;SDS011;10066;48.108;11.448;2022-10-23T13:11:53;2.13;;;0.70;;
19812;SDS011;10066;48.108;11.448;2022-10-23T13:14:29;1.90;;;0.60;;
19812;SDS011;10066;48.108;11.448;2022-10-23T13:16:59;0.80;;;0.70;;
19812;SDS011;10066;48.108;11.448;2022-10-23T13:19:27;1.97;;;0.50;;
19812;SDS011;10066;48.108;11.448;2022-10-23T13:21:54;1.00;;;0.80;;
19812;SDS011;10066;48.108;11.448;2022-10-23T13:24:21;2.13;;;0.73;;
19812;SDS011;10066;48.108;11.448;2022-10-23T13:26:52;0.83;;;0.60;;
19812;SDS011;10066;48.108;11.448;2022-10-23T13:29:21;2.70;;;0.70;;
19812;SDS011;10066;48.108;11.448;2022-10-23T13:31:50;0.80;;;0.50;;
19812;SDS011;10066;48.108;11.448;2022-10-23T13:34:20;3.70;;;0.70;;
19812;SDS011;10066;48.108;11.448;2022-10-23T13:36:51;1.63;;;0.50;;
19812;SDS011;10066;48.108;11.448;2022-10-23T13:39:26;1.37;;;0.73;;
19812;SDS011;10066;48.108;11.448;2022-10-23T13:41:56;2.13;;;0.57;;
19812;SDS011;10066;48.108;11.448;2022-10-23T13:44:32;3.60;;;0.70;;
19812;SDS011;10066;48.108;11.448;2022-10-23T13:47:01;1.10;;;0.70;;
19812;SDS011;10066;48.108;11.448;2022-10-23T13:49:28;1.97;;;0.70;;
19812;SDS011;10066;48.108;11.448;2022-10-23T13:51:56;1.00;;;0.77;;
19812;SDS011;10066;48.108;11.448;2022-10-23T13:54:24;2.83;;;0.63;;
19812;SDS011;10066;48.108;11.448;2022-10-23T13:56:54;1.60;;;0.60;;
19812;SDS011;10066;48.108;11.448;2022-10-23T13:59:22;1.50;;;0.50;;
19812;SDS011;10066;48.108;11.448;2022-10-23T14:01:49;0.97;;;0.70;;
19812;SDS011;10066;48.108;11.448;2022-10-23T14:04:17;1.50;;;0.60;;
19812;SDS011;10066;48.108;11.448;2022-10-23T14:06:45;2.67;;;0.63;;
19812;SDS011;10066;48.108;11.448;2022-10-23T14:09:13;1.57;;;0.80;;
19812;SDS011;10066;48.108;11.448;2022-10-23T14:11:43;3.13;;;0.70;;
19812;SDS011;10066;48.108;11.448;2022-10-23T14:14:10;1.63;;;0.73;;
19812;SDS011;10066;48.108;11.448;2022-10-23T14:16:37;3.70;;;0.67;;
19812;SDS011;10066;48.108;11.448;2022-10-23T14:19:05;3.80;;;0.70;;
19812;SDS011;10066;48.108;11.448;2022-10-23T14:21:32;1.20;;;0.83;;
19812;SDS011;10066;48.108;11.448;2022-10-23T14:23:59;1.33;;;0.70;;
19812;SDS011;10066;48.108;11.448;2022-10-23T14:26:27;2.53;;;0.80;;
19812;SDS011;10066;48.108;11.448;2022-10-23T14:28:56;0.80;;;0.70;;
19812;SDS011;10066;48.108;11.448;2022-10-23T14:31:24;2.67;;;0.80;;
19812;SDS011;10066;48.108;11.448;2022-10-23T14:33:51;2.10;;;0.60;;
19812;SDS011;10066;48.108;11.448;2022-10-23T14:36:20;3.40;;;0.80;;
19812;SDS011;10066;48.108;11.448;2022-10-23T14:38:48;2.73;;;0.53;;
19812;SDS011;10066;48.108;11.448;2022-10-23T14:41:16;1.93;;;0.70;;
19812;SDS011;10066;48.108;11.448;2022-10-23T14:43:43;2.13;;;0.70;;
19812;SDS011;10066;48.108;11.448;2022-10-23T14:46:13;4.50;;;0.70;;
19812;SDS011;10066;48.108;11.448;2022-10-23T14:48:41;2.57;;;0.67;;
19812;SDS011;10066;48.108;11.448;2022-10-23T14:51:14;2.87;;;0.90;;
19812;SDS011;10066;48.108;11.448;2022-10-23T14:53:43;2.60;;;0.90;;
19812;SDS011;10066;48.108;11.448;2022-10-23T14:56:11;0.97;;;0.80;;
19812;SDS011;10066;48.108;11.448;2022-10-23T14:58:38;2.70;;;0.90;;